sensor_id;sensor_type;location;lat;lon;timestamp;P1;durP1;ratioP1;P2;durP2;ratioP2
7471;SDS011;3777;48.722;8.110;2023-06-01T00:01:58;4.85;;;3.22;;
7471;SDS011;3777;48.722;8.110;2023-06-01T00:04:25;5.72;;;3.33;;
7471;SDS011;3777;48.722;8.110;2023-06-01T00:06:52;5.60;;;3.40;;
7471;SDS011;3777;48.722;8.110;2023-06-01T00:09:19;6.20;;;3.40;;
7471;SDS011;3777;48.722;8.110;2023-06-01T00:11:47;8.18;;;3.60;;
7471;SDS011;3777;48.722;8.110;2023-06-01T00:14:14;5.22;;;3.58;;
7471;SDS011;3777;48.722;8.110;2023-06-01T00:16:41;5.50;;;3.40;;
7471;SDS011;3777;48.722;8.110;2023-06-01T00:19:10;6.10;;;3.50;;
7471;SDS011;3777;48.722;8.110;2023-06-01T00:21:37;5.80;;;3.50;;
7471;SDS011;3777;48.722;8.110;2023-06-01T00:24:04;6.13;;;3.37;;
7471;SDS011;3777;48.722;8.110;2023-06-01T00:26:32;5.72;;;3.53;;
7471;SDS011;3777;48.722;8.110;2023-06-01T00:29:00;5.05;;;3.38;;
7471;SDS011;3777;48.722;8.110;2023-06-01T00:31:27;6.65;;;3.38;;
7471;SDS011;3777;48.722;8.110;2023-06-01T00:33:54;6.35;;;3.58;;
7471;SDS011;3777;48.722;8.110;2023-06-01T00:36:21;5.30;;;3.30;;
7471;SDS011;3777;48.722;8.110;2023-06-01T00:38:48;6.50;;;3.37;;
7471;SDS011;3777;48.722;8.110;2023-06-01T00:41:15;6.68;;;3.45;;
7471;SDS011;3777;48.722;8.110;2023-06-01T00:43:42;5.30;;;3.40;;
7471;SDS011;3777;48.722;8.110;2023-06-01T00:46:10;5.47;;;3.30;;
7471;SDS011;3777;48.722;8.110;2023-06-01T00:48:39;6.30;;;3.38;;
7471;SDS011;3777;48.722;8.110;2023-06-01T00:51:06;5.35;;;3.22;;
7471;SDS011;3777;48.722;8.110;2023-06-01T00:53:33;5.35;;;3.42;;
7471;SDS011;3777;48.722;8.110;2023-06-01T00:56:01;6.67;;;3.50;;
7471;SDS011;3777;48.722;8.110;2023-06-01T00:58:28;6.50;;;3.35;;
7471;SDS011;3777;48.722;8.110;2023-06-01T01:00:55;6.20;;;3.42;;
7471;SDS011;3777;48.722;8.110;2023-06-01T01:03:24;7.30;;;3.58;;
7471;SDS011;3777;48.722;8.110;2023-06-01T01:05:52;5.30;;;3.30;;
7471;SDS011;3777;48.722;8.110;2023-06-01T01:08:27;5.95;;;3.35;;
7471;SDS011;3777;48.722;8.110;2023-06-01T01:10:59;5.77;;;3.40;;
7471;SDS011;3777;48.722;8.110;2023-06-01T01:13:34;6.40;;;3.38;;
7471;SDS011;3777;48.722;8.110;2023-06-01T01:16:11;5.53;;;3.35;;
7471;SDS011;3777;48.722;8.110;2023-06-01T01:18:49;6.75;;;3.40;;
7471;SDS011;3777;48.722;8.110;2023-06-01T01:21:21;4.60;;;3.22;;
7471;SDS011;3777;48.722;8.110;2023-06-01T01:24:05;4.93;;;3.30;;
7471;SDS011;3777;48.722;8.110;2023-06-01T01:26:52;6.07;;;3.60;;
7471;SDS011;3777;48.722;8.110;2023-06-01T01:29:38;5.40;;;3.37;;
7471;SDS011;3777;48.722;8.110;2023-06-01T01:32:08;5.40;;;3.38;;
7471;SDS011;3777;48.722;8.110;2023-06-01T01:34:36;5.18;;;3.30;;
7471;SDS011;3777;48.722;8.110;2023-06-01T01:37:05;5.75;;;3.50;;
7471;SDS011;3777;48.722;8.110;2023-06-01T01:39:32;5.57;;;3.55;;
7471;SDS011;3777;48.722;8.110;2023-06-01T01:41:59;4.97;;;3.50;;
7471;SDS011;3777;48.722;8.110;2023-06-01T01:44:26;6.60;;;3.23;;
7471;SDS011;3777;48.722;8.110;2023-06-01T01:46:56;6.40;;;3.53;;
7471;SDS011;3777;48.722;8.110;2023-06-01T01:49:35;5.93;;;3.60;;
7471;SDS011;3777;48.722;8.110;2023-06-01T01:52:07;5.63;;;3.53;;
7471;SDS011;3777;48.722;8.110;2023-06-01T01:54:41;5.73;;;3.57;;
7471;SDS011;3777;48.722;8.110;2023-06-01T01:57:09;5.72;;;3.47;;
7471;SDS011;3777;48.722;8.110;2023-06-01T01:59:39;5.43;;;3.50;;
7471;SDS011;3777;48.722;8.110;2023-06-01T02:02:09;5.95;;;3.50;;
7471;SDS011;3777;48.722;8.110;2023-06-01T02:04:37;8.77;;;3.60;;
7471;SDS011;3777;48.722;8.110;2023-06-01T02:07:05;4.70;;;3.50;;
7471;SDS011;3777;48.722;8.110;2023-06-01T02:09:33;6.30;;;3.50;;
7471;SDS011;3777;48.722;8.110;2023-06-01T02:12:00;4.73;;;3.40;;
7471;SDS011;3777;48.722;8.110;2023-06-01T02:14:27;7.60;;;3.40;;
7471;SDS011;3777;48.722;8.110;2023-06-01T02:16:54;6.27;;;3.60;;
7471;SDS011;3777;48.722;8.110;2023-06-01T02:19:23;7.47;;;3.30;;
7471;SDS011;3777;48.722;8.110;2023-06-01T02:21:49;5.83;;;3.53;;
7471;SDS011;3777;48.722;8.110;2023-06-01T02:24:16;5.43;;;3.07;;
7471;SDS011;3777;48.722;8.110;2023-06-01T02:26:45;7.60;;;3.57;;
7471;SDS011;3777;48.722;8.110;2023-06-01T02:29:13;6.37;;;3.40;;
7471;SDS011;3777;48.722;8.110;2023-06-01T02:31:40;5.10;;;3.53;;
7471;SDS011;3777;48.722;8.110;2023-06-01T02:34:07;6.43;;;4.00;;
7471;SDS011;3777;48.722;8.110;2023-06-01T02:36:36;5.97;;;3.27;;
7471;SDS011;3777;48.722;8.110;2023-06-01T02:39:03;5.13;;;3.70;;
7471;SDS011;3777;48.722;8.110;2023-06-01T02:41:30;6.10;;;3.63;;
7471;SDS011;3777;48.722;8.110;2023-06-01T02:43:57;5.10;;;3.00;;
7471;SDS011;3777;48.722;8.110;2023-06-01T02:46:24;4.83;;;3.30;;
7471;SDS011;3777;48.722;8.110;2023-06-01T02:48:51;6.13;;;3.30;;
7471;SDS011;3777;48.722;8.110;2023-06-01T02:51:17;9.70;;;3.80;;
7471;SDS011;3777;48.722;8.110;2023-06-01T02:53:46;6.90;;;3.50;;
7471;SDS011;3777;48.722;8.110;2023-06-01T02:56:13;6.93;;;3.87;;
7471;SDS011;3777;48.722;8.110;2023-06-01T02:58:40;7.53;;;4.07;;
7471;SDS011;3777;48.722;8.110;2023-06-01T03:01:07;5.33;;;3.50;;
7471;SDS011;3777;48.722;8.110;2023-06-01T03:03:36;6.20;;;3.80;;
7471;SDS011;3777;48.722;8.110;2023-06-01T03:06:03;5.63;;;3.73;;
7471;SDS011;3777;48.722;8.110;2023-06-01T03:08:31;4.80;;;3.30;;
7471;SDS011;3777;48.722;8.110;2023-06-01T03:11:00;4.30;;;3.83;;
7471;SDS011;3777;48.722;8.110;2023-06-01T03:13:27;6.50;;;3.70;;
7471;SDS011;3777;48.722;8.110;2023-06-01T03:15:54;5.67;;;3.53;;
7471;SDS011;3777;48.722;8.110;2023-06-01T03:18:21;5.17;;;3.30;;
7471;SDS011;3777;48.722;8.110;2023-06-01T03:20:48;5.90;;;3.53;;
7471;SDS011;3777;48.722;8.110;2023-06-01T03:23:15;5.17;;;3.50;;
7471;SDS011;3777;48.722;8.110;2023-06-01T03:25:42;7.00;;;3.90;;
7471;SDS011;3777;48.722;8.110;2023-06-01T03:28:12;6.77;;;3.67;;
7471;SDS011;3777;48.722;8.110;2023-06-01T03:30:39;5.97;;;3.57;;
7471;SDS011;3777;48.722;8.110;2023-06-01T03:33:07;5.73;;;3.83;;
7471;SDS011;3777;48.722;8.110;2023-06-01T03:35:35;5.43;;;3.47;;
7471;SDS011;3777;48.722;8.110;2023-06-01T03:38:02;5.67;;;3.40;;
7471;SDS011;3777;48.722;8.110;2023-06-01T03:40:29;4.23;;;3.20;;
7471;SDS011;3777;48.722;8.110;2023-06-01T03:42:56;4.30;;;3.60;;
7471;SDS011;3777;48.722;8.110;2023-06-01T03:45:24;4.93;;;3.27;;
7471;SDS011;3777;48.722;8.110;2023-06-01T03:47:51;4.53;;;3.60;;
7471;SDS011;3777;48.722;8.110;2023-06-01T03:50:18;4.83;;;3.50;;
7471;SDS011;3777;48.722;8.110;2023-06-01T03:52:45;6.07;;;3.37;;
7471;SDS011;3777;48.722;8.110;2023-06-01T03:55:12;6.20;;;3.70;;
7471;SDS011;3777;48.722;8.110;2023-06-01T03:57:39;6.33;;;3.80;;
7471;SDS011;3777;48.722;8.110;2023-06-01T04:00:07;4.60;;;3.30;;
7471;SDS011;3777;48.722;8.110;2023-06-01T04:02:47;8.73;;;3.87;;
7471;SDS011;3777;48.722;8.110;2023-06-01T04:05:17;5.20;;;3.50;;
7471;SDS011;3777;48.722;8.110;2023-06-01T04:07:44;5.00;;;3.30;;
7471;SDS011;3777;48.722;8.110;2023-06-01T04:10:12;5.47;;;3.57;;
7471;SDS011;3777;48.722;8.110;2023-06-01T04:12:40;6.87;;;3.70;;
7471;SDS011;3777;48.722;8.110;2023-06-01T04:15:08;4.77;;;3.43;;
7471;SDS011;3777;48.722;8.110;2023-06-01T04:17:36;5.67;;;3.27;;
7471;SDS011;3777;48.722;8.110;2023-06-01T04:20:05;5.13;;;3.20;;
7471;SDS011;3777;48.722;8.110;2023-06-01T04:22:34;8.90;;;3.30;;
7471;SDS011;3777;48.722;8.110;2023-06-01T04:25:01;7.20;;;3.53;;
7471;SDS011;3777;48.722;8.110;2023-06-01T04:27:28;6.07;;;3.43;;
7471;SDS011;3777;48.722;8.110;2023-06-01T04:29:55;5.20;;;3.37;;
7471;SDS011;3777;48.722;8.110;2023-06-01T04:32:23;5.23;;;3.30;;
7471;SDS011;3777;48.722;8.110;2023-06-01T04:34:51;6.37;;;3.37;;
7471;SDS011;3777;48.722;8.110;2023-06-01T04:37:19;6.07;;;3.37;;
7471;SDS011;3777;48.722;8.110;2023-06-01T04:39:47;5.10;;;3.40;;
7471;SDS011;3777;48.722;8.110;2023-06-01T04:42:15;7.03;;;3.20;;
7471;SDS011;3777;48.722;8.110;2023-06-01T04:44:43;5.23;;;3.33;;
7471;SDS011;3777;48.722;8.110;2023-06-01T04:47:14;6.13;;;3.20;;
7471;SDS011;3777;48.722;8.110;2023-06-01T04:49:42;5.60;;;3.40;;
7471;SDS011;3777;48.722;8.110;2023-06-01T04:52:09;4.67;;;3.37;;
7471;SDS011;3777;48.722;8.110;2023-06-01T04:54:38;5.93;;;3.20;;
7471;SDS011;3777;48.722;8.110;2023-06-01T04:57:06;4.97;;;3.30;;
7471;SDS011;3777;48.722;8.110;2023-06-01T04:59:32;4.63;;;3.20;;
7471;SDS011;3777;48.722;8.110;2023-06-01T05:02:00;7.20;;;3.30;;
7471;SDS011;3777;48.722;8.110;2023-06-01T05:04:27;5.90;;;3.27;;
7471;SDS011;3777;48.722;8.110;2023-06-01T05:06:54;6.43;;;3.47;;
7471;SDS011;3777;48.722;8.110;2023-06-01T05:09:20;4.27;;;3.27;;
7471;SDS011;3777;48.722;8.110;2023-06-01T05:11:49;6.83;;;3.07;;
7471;SDS011;3777;48.722;8.110;2023-06-01T05:14:16;7.03;;;3.37;;
7471;SDS011;3777;48.722;8.110;2023-06-01T05:16:43;5.33;;;3.37;;
7471;SDS011;3777;48.722;8.110;2023-06-01T05:19:10;6.60;;;3.47;;
7471;SDS011;3777;48.722;8.110;2023-06-01T05:21:37;10.63;;;3.63;;
7471;SDS011;3777;48.722;8.110;2023-06-01T05:24:06;4.87;;;3.40;;
7471;SDS011;3777;48.722;8.110;2023-06-01T05:26:33;7.03;;;3.23;;
7471;SDS011;3777;48.722;8.110;2023-06-01T05:29:01;5.63;;;3.47;;
7471;SDS011;3777;48.722;8.110;2023-06-01T05:31:29;7.63;;;3.40;;
7471;SDS011;3777;48.722;8.110;2023-06-01T05:33:56;8.50;;;3.60;;
7471;SDS011;3777;48.722;8.110;2023-06-01T05:36:23;6.43;;;3.17;;
7471;SDS011;3777;48.722;8.110;2023-06-01T05:38:50;6.37;;;3.07;;
7471;SDS011;3777;48.722;8.110;2023-06-01T05:41:18;5.87;;;3.13;;
7471;SDS011;3777;48.722;8.110;2023-06-01T05:43:45;5.00;;;3.23;;
7471;SDS011;3777;48.722;8.110;2023-06-01T05:46:13;4.43;;;3.00;;
7471;SDS011;3777;48.722;8.110;2023-06-01T05:48:40;9.88;;;3.55;;
7471;SDS011;3777;48.722;8.110;2023-06-01T05:51:07;6.95;;;3.10;;
7471;SDS011;3777;48.722;8.110;2023-06-01T05:53:34;5.63;;;3.35;;
7471;SDS011;3777;48.722;8.110;2023-06-01T05:56:01;5.63;;;3.20;;
7471;SDS011;3777;48.722;8.110;2023-06-01T05:58:28;7.05;;;3.33;;
7471;SDS011;3777;48.722;8.110;2023-06-01T06:00:55;5.00;;;3.22;;
7471;SDS011;3777;48.722;8.110;2023-06-01T06:03:24;7.68;;;3.17;;
7471;SDS011;3777;48.722;8.110;2023-06-01T06:05:50;8.38;;;3.80;;
7471;SDS011;3777;48.722;8.110;2023-06-01T06:08:18;5.25;;;3.00;;
7471;SDS011;3777;48.722;8.110;2023-06-01T06:10:45;5.00;;;3.38;;
7471;SDS011;3777;48.722;8.110;2023-06-01T06:13:13;4.70;;;3.05;;
7471;SDS011;3777;48.722;8.110;2023-06-01T06:15:40;5.28;;;3.30;;
7471;SDS011;3777;48.722;8.110;2023-06-01T06:18:07;4.80;;;3.30;;
7471;SDS011;3777;48.722;8.110;2023-06-01T06:20:35;6.18;;;3.47;;
7471;SDS011;3777;48.722;8.110;2023-06-01T06:23:02;3.65;;;3.00;;
7471;SDS011;3777;48.722;8.110;2023-06-01T06:25:29;9.00;;;3.03;;
7471;SDS011;3777;48.722;8.110;2023-06-01T06:27:56;5.82;;;3.20;;
7471;SDS011;3777;48.722;8.110;2023-06-01T06:30:23;6.90;;;3.20;;
7471;SDS011;3777;48.722;8.110;2023-06-01T06:32:51;6.95;;;3.33;;
7471;SDS011;3777;48.722;8.110;2023-06-01T06:35:18;7.90;;;3.08;;
7471;SDS011;3777;48.722;8.110;2023-06-01T06:37:46;4.80;;;2.95;;
7471;SDS011;3777;48.722;8.110;2023-06-01T06:40:13;4.90;;;2.80;;
7471;SDS011;3777;48.722;8.110;2023-06-01T06:42:43;6.38;;;3.20;;
7471;SDS011;3777;48.722;8.110;2023-06-01T06:45:10;9.05;;;3.45;;
7471;SDS011;3777;48.722;8.110;2023-06-01T06:47:37;5.68;;;3.40;;
7471;SDS011;3777;48.722;8.110;2023-06-01T06:50:04;6.18;;;3.03;;
7471;SDS011;3777;48.722;8.110;2023-06-01T06:52:32;4.35;;;2.75;;
7471;SDS011;3777;48.722;8.110;2023-06-01T06:55:00;3.97;;;2.88;;
7471;SDS011;3777;48.722;8.110;2023-06-01T06:57:28;4.10;;;2.92;;
7471;SDS011;3777;48.722;8.110;2023-06-01T06:59:55;7.13;;;3.28;;
7471;SDS011;3777;48.722;8.110;2023-06-01T07:02:22;5.55;;;2.60;;
7471;SDS011;3777;48.722;8.110;2023-06-01T07:04:50;5.93;;;2.78;;
7471;SDS011;3777;48.722;8.110;2023-06-01T07:07:17;9.38;;;2.97;;
7471;SDS011;3777;48.722;8.110;2023-06-01T07:09:44;6.53;;;2.80;;
7471;SDS011;3777;48.722;8.110;2023-06-01T07:12:12;5.13;;;2.85;;
7471;SDS011;3777;48.722;8.110;2023-06-01T07:14:39;5.50;;;2.80;;
7471;SDS011;3777;48.722;8.110;2023-06-01T07:17:06;6.20;;;3.00;;
7471;SDS011;3777;48.722;8.110;2023-06-01T07:19:34;4.85;;;2.85;;
7471;SDS011;3777;48.722;8.110;2023-06-01T07:22:01;5.80;;;2.50;;
7471;SDS011;3777;48.722;8.110;2023-06-01T07:24:28;7.18;;;3.10;;
7471;SDS011;3777;48.722;8.110;2023-06-01T07:26:55;6.93;;;2.72;;
7471;SDS011;3777;48.722;8.110;2023-06-01T07:29:24;5.82;;;2.72;;
7471;SDS011;3777;48.722;8.110;2023-06-01T07:31:51;7.25;;;3.03;;
7471;SDS011;3777;48.722;8.110;2023-06-01T07:34:18;5.65;;;2.90;;
7471;SDS011;3777;48.722;8.110;2023-06-01T07:36:45;7.22;;;3.10;;
7471;SDS011;3777;48.722;8.110;2023-06-01T07:39:14;5.43;;;2.92;;
7471;SDS011;3777;48.722;8.110;2023-06-01T07:41:41;4.55;;;2.85;;
7471;SDS011;3777;48.722;8.110;2023-06-01T07:44:10;6.63;;;3.20;;
7471;SDS011;3777;48.722;8.110;2023-06-01T07:46:44;3.88;;;2.60;;
7471;SDS011;3777;48.722;8.110;2023-06-01T07:49:11;5.28;;;2.70;;
7471;SDS011;3777;48.722;8.110;2023-06-01T07:51:39;5.57;;;2.88;;
7471;SDS011;3777;48.722;8.110;2023-06-01T07:54:06;5.65;;;3.00;;
7471;SDS011;3777;48.722;8.110;2023-06-01T07:56:33;6.43;;;2.85;;
7471;SDS011;3777;48.722;8.110;2023-06-01T07:59:00;4.40;;;2.70;;
7471;SDS011;3777;48.722;8.110;2023-06-01T08:01:27;6.97;;;3.00;;
7471;SDS011;3777;48.722;8.110;2023-06-01T08:03:56;4.50;;;3.00;;
7471;SDS011;3777;48.722;8.110;2023-06-01T08:06:23;5.63;;;2.75;;
7471;SDS011;3777;48.722;8.110;2023-06-01T08:08:51;4.43;;;2.42;;
7471;SDS011;3777;48.722;8.110;2023-06-01T08:11:18;6.05;;;2.80;;
7471;SDS011;3777;48.722;8.110;2023-06-01T08:13:46;5.57;;;3.03;;
7471;SDS011;3777;48.722;8.110;2023-06-01T08:16:13;5.25;;;2.60;;
7471;SDS011;3777;48.722;8.110;2023-06-01T08:18:41;4.90;;;3.00;;
7471;SDS011;3777;48.722;8.110;2023-06-01T08:21:10;5.95;;;2.90;;
7471;SDS011;3777;48.722;8.110;2023-06-01T08:23:37;7.18;;;2.90;;
7471;SDS011;3777;48.722;8.110;2023-06-01T08:26:04;6.05;;;2.80;;
7471;SDS011;3777;48.722;8.110;2023-06-01T08:28:31;4.22;;;2.90;;
7471;SDS011;3777;48.722;8.110;2023-06-01T08:30:58;7.80;;;2.78;;
7471;SDS011;3777;48.722;8.110;2023-06-01T08:33:25;7.78;;;2.90;;
7471;SDS011;3777;48.722;8.110;2023-06-01T08:35:52;4.70;;;2.85;;
7471;SDS011;3777;48.722;8.110;2023-06-01T08:38:21;5.40;;;3.08;;
7471;SDS011;3777;48.722;8.110;2023-06-01T08:40:48;4.63;;;2.75;;
7471;SDS011;3777;48.722;8.110;2023-06-01T08:43:17;7.13;;;2.67;;
7471;SDS011;3777;48.722;8.110;2023-06-01T08:45:46;4.93;;;2.85;;
7471;SDS011;3777;48.722;8.110;2023-06-01T08:48:14;6.07;;;2.78;;
7471;SDS011;3777;48.722;8.110;2023-06-01T08:50:44;4.75;;;2.92;;
7471;SDS011;3777;48.722;8.110;2023-06-01T08:53:13;4.85;;;3.00;;
7471;SDS011;3777;48.722;8.110;2023-06-01T08:55:45;4.65;;;2.85;;
7471;SDS011;3777;48.722;8.110;2023-06-01T08:58:16;4.55;;;2.80;;
7471;SDS011;3777;48.722;8.110;2023-06-01T09:00:43;7.25;;;2.60;;
7471;SDS011;3777;48.722;8.110;2023-06-01T09:03:13;6.18;;;3.08;;
7471;SDS011;3777;48.722;8.110;2023-06-01T09:05:40;5.25;;;2.80;;
7471;SDS011;3777;48.722;8.110;2023-06-01T09:08:07;6.75;;;3.00;;
7471;SDS011;3777;48.722;8.110;2023-06-01T09:10:34;5.68;;;2.85;;
7471;SDS011;3777;48.722;8.110;2023-06-01T09:13:03;6.72;;;2.90;;
7471;SDS011;3777;48.722;8.110;2023-06-01T09:15:30;4.57;;;3.00;;
7471;SDS011;3777;48.722;8.110;2023-06-01T09:18:06;4.75;;;2.80;;
7471;SDS011;3777;48.722;8.110;2023-06-01T09:20:35;4.68;;;2.95;;
7471;SDS011;3777;48.722;8.110;2023-06-01T09:23:04;5.97;;;2.83;;
7471;SDS011;3777;48.722;8.110;2023-06-01T09:25:31;6.47;;;3.00;;
7471;SDS011;3777;48.722;8.110;2023-06-01T09:28:00;3.60;;;3.00;;
7471;SDS011;3777;48.722;8.110;2023-06-01T09:30:38;5.18;;;3.03;;
7471;SDS011;3777;48.722;8.110;2023-06-01T09:33:06;5.90;;;3.50;;
7471;SDS011;3777;48.722;8.110;2023-06-01T09:35:40;7.32;;;3.05;;
7471;SDS011;3777;48.722;8.110;2023-06-01T09:38:08;4.35;;;3.00;;
7471;SDS011;3777;48.722;8.110;2023-06-01T09:40:37;6.32;;;3.20;;
7471;SDS011;3777;48.722;8.110;2023-06-01T09:43:18;3.50;;;3.10;;
7471;SDS011;3777;48.722;8.110;2023-06-01T09:45:47;5.28;;;3.10;;
7471;SDS011;3777;48.722;8.110;2023-06-01T09:48:31;4.55;;;2.90;;
7471;SDS011;3777;48.722;8.110;2023-06-01T09:50:58;5.28;;;3.17;;
7471;SDS011;3777;48.722;8.110;2023-06-01T09:53:25;4.70;;;3.35;;
7471;SDS011;3777;48.722;8.110;2023-06-01T09:55:59;6.15;;;3.55;;
7471;SDS011;3777;48.722;8.110;2023-06-01T09:58:27;4.18;;;3.30;;
7471;SDS011;3777;48.722;8.110;2023-06-01T10:00:55;4.95;;;3.25;;
7471;SDS011;3777;48.722;8.110;2023-06-01T10:03:28;4.00;;;3.28;;
7471;SDS011;3777;48.722;8.110;2023-06-01T10:05:56;4.65;;;3.42;;
7471;SDS011;3777;48.722;8.110;2023-06-01T10:08:23;5.18;;;3.67;;
7471;SDS011;3777;48.722;8.110;2023-06-01T10:10:51;6.20;;;3.42;;
7471;SDS011;3777;48.722;8.110;2023-06-01T10:13:18;4.78;;;3.45;;
7471;SDS011;3777;48.722;8.110;2023-06-01T10:15:52;4.75;;;3.45;;
7471;SDS011;3777;48.722;8.110;2023-06-01T10:18:21;9.27;;;3.50;;
7471;SDS011;3777;48.722;8.110;2023-06-01T10:20:48;5.45;;;3.50;;
7471;SDS011;3777;48.722;8.110;2023-06-01T10:23:17;5.80;;;3.72;;
7471;SDS011;3777;48.722;8.110;2023-06-01T10:25:46;5.30;;;3.60;;
7471;SDS011;3777;48.722;8.110;2023-06-01T10:28:16;5.53;;;4.20;;
7471;SDS011;3777;48.722;8.110;2023-06-01T10:30:44;5.55;;;4.05;;
7471;SDS011;3777;48.722;8.110;2023-06-01T10:33:11;6.22;;;4.20;;
7471;SDS011;3777;48.722;8.110;2023-06-01T10:38:31;7.00;;;3.67;;
7471;SDS011;3777;48.722;8.110;2023-06-01T10:43:57;5.10;;;3.90;;
7471;SDS011;3777;48.722;8.110;2023-06-01T10:46:33;7.70;;;4.30;;
7471;SDS011;3777;48.722;8.110;2023-06-01T10:49:01;6.38;;;3.70;;
7471;SDS011;3777;48.722;8.110;2023-06-01T10:51:31;6.78;;;4.00;;
7471;SDS011;3777;48.722;8.110;2023-06-01T11:02:50;5.70;;;4.00;;
7471;SDS011;3777;48.722;8.110;2023-06-01T11:11:33;6.90;;;3.75;;
7471;SDS011;3777;48.722;8.110;2023-06-01T11:14:26;6.38;;;4.05;;
7471;SDS011;3777;48.722;8.110;2023-06-01T11:16:56;6.22;;;4.10;;
7471;SDS011;3777;48.722;8.110;2023-06-01T11:20:01;7.65;;;4.15;;
7471;SDS011;3777;48.722;8.110;2023-06-01T11:22:36;6.20;;;4.28;;
7471;SDS011;3777;48.722;8.110;2023-06-01T11:25:05;5.32;;;4.07;;
7471;SDS011;3777;48.722;8.110;2023-06-01T11:27:35;5.95;;;4.05;;
7471;SDS011;3777;48.722;8.110;2023-06-01T11:30:03;4.95;;;4.07;;
7471;SDS011;3777;48.722;8.110;2023-06-01T11:32:31;6.05;;;3.92;;
7471;SDS011;3777;48.722;8.110;2023-06-01T11:35:17;5.15;;;3.90;;
7471;SDS011;3777;48.722;8.110;2023-06-01T11:37:45;5.78;;;4.10;;
7471;SDS011;3777;48.722;8.110;2023-06-01T11:40:14;7.72;;;4.15;;
7471;SDS011;3777;48.722;8.110;2023-06-01T11:42:43;6.53;;;4.47;;
7471;SDS011;3777;48.722;8.110;2023-06-01T11:45:14;5.25;;;4.47;;
7471;SDS011;3777;48.722;8.110;2023-06-01T11:47:41;7.25;;;4.78;;
7471;SDS011;3777;48.722;8.110;2023-06-01T11:50:19;7.47;;;4.10;;
7471;SDS011;3777;48.722;8.110;2023-06-01T11:52:46;4.88;;;3.92;;
7471;SDS011;3777;48.722;8.110;2023-06-01T11:55:13;6.82;;;4.10;;
7471;SDS011;3777;48.722;8.110;2023-06-01T11:57:42;5.90;;;4.30;;
7471;SDS011;3777;48.722;8.110;2023-06-01T12:00:10;8.45;;;4.45;;
7471;SDS011;3777;48.722;8.110;2023-06-01T12:02:39;8.20;;;4.20;;
7471;SDS011;3777;48.722;8.110;2023-06-01T12:05:07;8.15;;;4.50;;
7471;SDS011;3777;48.722;8.110;2023-06-01T12:07:42;8.82;;;4.18;;
7471;SDS011;3777;48.722;8.110;2023-06-01T12:10:11;7.50;;;4.38;;
7471;SDS011;3777;48.722;8.110;2023-06-01T12:12:40;5.75;;;4.47;;
7471;SDS011;3777;48.722;8.110;2023-06-01T12:15:10;5.68;;;4.03;;
7471;SDS011;3777;48.722;8.110;2023-06-01T12:17:47;4.85;;;4.00;;
7471;SDS011;3777;48.722;8.110;2023-06-01T12:20:25;5.65;;;4.57;;
7471;SDS011;3777;48.722;8.110;2023-06-01T12:22:53;7.00;;;4.55;;
7471;SDS011;3777;48.722;8.110;2023-06-01T12:25:20;6.90;;;4.40;;
7471;SDS011;3777;48.722;8.110;2023-06-01T12:28:00;7.85;;;3.97;;
7471;SDS011;3777;48.722;8.110;2023-06-01T12:30:31;5.65;;;4.30;;
7471;SDS011;3777;48.722;8.110;2023-06-01T12:32:58;8.10;;;4.50;;
7471;SDS011;3777;48.722;8.110;2023-06-01T12:35:25;6.13;;;4.32;;
7471;SDS011;3777;48.722;8.110;2023-06-01T12:38:02;6.60;;;4.32;;
7471;SDS011;3777;48.722;8.110;2023-06-01T12:40:35;8.02;;;4.15;;
7471;SDS011;3777;48.722;8.110;2023-06-01T12:43:04;5.25;;;3.85;;
7471;SDS011;3777;48.722;8.110;2023-06-01T12:45:42;4.93;;;4.10;;
7471;SDS011;3777;48.722;8.110;2023-06-01T12:48:12;10.18;;;4.78;;
7471;SDS011;3777;48.722;8.110;2023-06-01T12:50:56;6.13;;;4.15;;
7471;SDS011;3777;48.722;8.110;2023-06-01T12:53:22;7.20;;;4.10;;
7471;SDS011;3777;48.722;8.110;2023-06-01T12:55:49;5.03;;;3.92;;
7471;SDS011;3777;48.722;8.110;2023-06-01T12:58:18;4.85;;;4.00;;
7471;SDS011;3777;48.722;8.110;2023-06-01T13:00:45;7.15;;;4.00;;
7471;SDS011;3777;48.722;8.110;2023-06-01T13:03:13;8.18;;;4.10;;
7471;SDS011;3777;48.722;8.110;2023-06-01T13:05:41;6.90;;;4.00;;
7471;SDS011;3777;48.722;8.110;2023-06-01T13:08:10;7.80;;;4.25;;
7471;SDS011;3777;48.722;8.110;2023-06-01T13:10:37;5.60;;;3.65;;
7471;SDS011;3777;48.722;8.110;2023-06-01T13:13:04;4.10;;;3.60;;
7471;SDS011;3777;48.722;8.110;2023-06-01T13:15:34;7.07;;;3.70;;
7471;SDS011;3777;48.722;8.110;2023-06-01T13:18:01;6.05;;;3.35;;
7471;SDS011;3777;48.722;8.110;2023-06-01T13:20:28;6.47;;;3.70;;
7471;SDS011;3777;48.722;8.110;2023-06-01T13:22:55;5.18;;;3.47;;
7471;SDS011;3777;48.722;8.110;2023-06-01T13:25:22;5.68;;;3.80;;
7471;SDS011;3777;48.722;8.110;2023-06-01T13:27:49;5.65;;;4.18;;
7471;SDS011;3777;48.722;8.110;2023-06-01T13:30:20;5.45;;;3.53;;
7471;SDS011;3777;48.722;8.110;2023-06-01T13:32:49;5.40;;;3.55;;
7471;SDS011;3777;48.722;8.110;2023-06-01T13:35:16;5.47;;;3.47;;
7471;SDS011;3777;48.722;8.110;2023-06-01T13:37:43;7.05;;;3.35;;
7471;SDS011;3777;48.722;8.110;2023-06-01T13:40:10;7.10;;;3.30;;
7471;SDS011;3777;48.722;8.110;2023-06-01T13:42:38;5.28;;;3.47;;
7471;SDS011;3777;48.722;8.110;2023-06-01T13:45:06;4.05;;;3.15;;
7471;SDS011;3777;48.722;8.110;2023-06-01T13:47:33;5.20;;;3.92;;
7471;SDS011;3777;48.722;8.110;2023-06-01T13:50:02;5.95;;;3.50;;
7471;SDS011;3777;48.722;8.110;2023-06-01T13:52:30;4.15;;;3.38;;
7471;SDS011;3777;48.722;8.110;2023-06-01T13:54:57;4.53;;;3.35;;
7471;SDS011;3777;48.722;8.110;2023-06-01T13:57:24;5.88;;;3.47;;
7471;SDS011;3777;48.722;8.110;2023-06-01T13:59:51;4.95;;;3.45;;
7471;SDS011;3777;48.722;8.110;2023-06-01T14:02:18;4.75;;;3.03;;
7471;SDS011;3777;48.722;8.110;2023-06-01T14:04:46;5.03;;;3.22;;
7471;SDS011;3777;48.722;8.110;2023-06-01T14:07:14;7.28;;;3.20;;
7471;SDS011;3777;48.722;8.110;2023-06-01T14:09:41;6.15;;;3.47;;
7471;SDS011;3777;48.722;8.110;2023-06-01T14:12:09;6.82;;;3.55;;
7471;SDS011;3777;48.722;8.110;2023-06-01T14:14:36;5.03;;;3.50;;
7471;SDS011;3777;48.722;8.110;2023-06-01T14:17:03;4.53;;;3.47;;
7471;SDS011;3777;48.722;8.110;2023-06-01T14:19:31;5.50;;;3.53;;
7471;SDS011;3777;48.722;8.110;2023-06-01T14:21:58;5.90;;;3.30;;
7471;SDS011;3777;48.722;8.110;2023-06-01T14:24:26;5.63;;;3.60;;
7471;SDS011;3777;48.722;8.110;2023-06-01T14:26:57;4.45;;;3.20;;
7471;SDS011;3777;48.722;8.110;2023-06-01T14:29:24;4.20;;;3.80;;
7471;SDS011;3777;48.722;8.110;2023-06-01T14:31:50;4.25;;;3.40;;
7471;SDS011;3777;48.722;8.110;2023-06-01T14:34:17;5.43;;;3.58;;
7471;SDS011;3777;48.722;8.110;2023-06-01T14:40:07;6.30;;;3.67;;
7471;SDS011;3777;48.722;8.110;2023-06-01T14:42:34;4.00;;;3.22;;
7471;SDS011;3777;48.722;8.110;2023-06-01T14:45:03;5.15;;;3.50;;
7471;SDS011;3777;48.722;8.110;2023-06-01T14:47:30;4.70;;;3.22;;
7471;SDS011;3777;48.722;8.110;2023-06-01T14:49:57;6.45;;;3.20;;
7471;SDS011;3777;48.722;8.110;2023-06-01T14:52:24;5.47;;;3.60;;
7471;SDS011;3777;48.722;8.110;2023-06-01T14:54:51;6.00;;;3.40;;
7471;SDS011;3777;48.722;8.110;2023-06-01T14:57:19;5.50;;;3.60;;
7471;SDS011;3777;48.722;8.110;2023-06-01T14:59:46;6.50;;;3.60;;
7471;SDS011;3777;48.722;8.110;2023-06-01T15:02:13;4.90;;;3.30;;
7471;SDS011;3777;48.722;8.110;2023-06-01T15:04:40;6.32;;;3.65;;
7471;SDS011;3777;48.722;8.110;2023-06-01T15:07:07;4.63;;;3.55;;
7471;SDS011;3777;48.722;8.110;2023-06-01T15:09:34;6.65;;;3.70;;
7471;SDS011;3777;48.722;8.110;2023-06-01T15:12:01;4.93;;;3.45;;
7471;SDS011;3777;48.722;8.110;2023-06-01T15:14:36;5.32;;;3.50;;
7471;SDS011;3777;48.722;8.110;2023-06-01T15:17:03;5.72;;;2.97;;
7471;SDS011;3777;48.722;8.110;2023-06-01T15:19:30;5.50;;;3.45;;
7471;SDS011;3777;48.722;8.110;2023-06-01T15:21:57;4.53;;;3.58;;
7471;SDS011;3777;48.722;8.110;2023-06-01T15:24:24;5.07;;;3.10;;
7471;SDS011;3777;48.722;8.110;2023-06-01T15:26:51;4.30;;;3.15;;
7471;SDS011;3777;48.722;8.110;2023-06-01T15:29:18;6.55;;;3.65;;
7471;SDS011;3777;48.722;8.110;2023-06-01T15:31:46;8.05;;;3.50;;
7471;SDS011;3777;48.722;8.110;2023-06-01T15:34:13;4.57;;;3.58;;
7471;SDS011;3777;48.722;8.110;2023-06-01T15:36:40;4.18;;;3.30;;
7471;SDS011;3777;48.722;8.110;2023-06-01T15:39:07;5.47;;;3.70;;
7471;SDS011;3777;48.722;8.110;2023-06-01T15:41:35;6.25;;;3.10;;
7471;SDS011;3777;48.722;8.110;2023-06-01T15:44:02;5.57;;;3.05;;
7471;SDS011;3777;48.722;8.110;2023-06-01T15:46:29;3.72;;;3.25;;
7471;SDS011;3777;48.722;8.110;2023-06-01T15:48:57;5.68;;;3.33;;